Time;durP1;ratioP1;P1;durP2;ratioP2;P2;SDS_P1;SDS_P2;PMS_P1;PMS_P2;Temp;Humidity;BMP_temperature;BMP_pressure;BME280_temperature;BME280_humidity;BME280_pressure;Samples;Min_cycle;Max_cycle;Signal;HPM_P1;HPM_P2
2021/03/02 00:00:30;;;;;;;71.47;11.65;;;2.10;1.00;;;;;;5132019;27;20670;-67
2021/03/02 00:02:57;;;;;;;70.18;12.35;;;2.00;1.00;;;;;;5132095;27;20220;-67
2021/03/02 00:05:24;;;;;;;69.53;12.52;;;2.00;1.00;;;;;;5132430;27;20256;-67
2021/03/02 00:07:50;;;;;;;70.50;12.27;;;1.90;1.00;;;;;;5132183;27;20213;-67
2021/03/02 00:10:16;;;;;;;69.85;12.35;;;1.80;1.00;;;;;;5132100;27;20203;-67
2021/03/02 00:12:44;;;;;;;69.78;12.07;;;1.80;1.00;;;;;;5132022;27;20203;-68
2021/03/02 00:15:13;;;;;;;72.72;12.10;;;1.70;1.00;;;;;;5131742;27;20199;-68
2021/03/02 00:17:46;;;;;;;68.95;12.63;;;1.70;1.00;;;;;;5132263;27;20289;-68
2021/03/02 00:20:14;;;;;;;68.75;12.60;;;1.70;1.00;;;;;;5132275;27;20579;-67
2021/03/02 00:22:52;;;;;;;74.07;12.77;;;1.70;1.00;;;;;;5132264;27;20230;-68
2021/03/02 00:25:18;;;;;;;69.80;11.85;;;1.70;1.00;;;;;;5131815;27;20198;-67
2021/03/02 00:27:47;;;;;;;70.55;13.13;;;1.70;1.00;;;;;;5131615;27;20207;-68
2021/03/02 00:30:17;;;;;;;71.55;12.35;;;1.70;1.00;;;;;;5132132;27;20209;-67
2021/03/02 00:32:46;;;;;;;68.82;11.55;;;1.60;1.00;;;;;;5132903;27;20251;-67
2021/03/02 00:35:13;;;;;;;70.03;12.30;;;1.60;1.00;;;;;;5135310;27;20230;-68
2021/03/02 00:37:40;;;;;;;65.15;10.98;;;1.60;1.00;;;;;;5135780;27;20213;-67
2021/03/02 00:40:08;;;;;;;71.45;12.50;;;1.50;1.00;;;;;;5135564;27;20293;-67
2021/03/02 00:42:34;;;;;;;81.38;17.27;;;1.50;1.00;;;;;;5135340;27;20762;-68
2021/03/02 00:45:01;;;;;;;95.18;22.88;;;1.50;1.00;;;;;;5135723;27;20294;-68
2021/03/02 00:47:27;;;;;;;104.90;25.02;;;1.50;1.00;;;;;;5135642;27;20229;-68
2021/03/02 00:49:54;;;;;;;76.18;14.85;;;1.50;1.00;;;;;;5135258;27;20283;-67
2021/03/02 00:52:20;;;;;;;71.63;14.10;;;1.50;1.00;;;;;;5135360;27;20246;-67
2021/03/02 00:54:47;;;;;;;87.07;19.88;;;1.40;1.00;;;;;;5135417;27;20210;-68
2021/03/02 00:57:13;;;;;;;90.93;21.38;;;1.40;1.00;;;;;;5135466;27;20664;-67
2021/03/02 00:59:39;;;;;;;95.13;20.92;;;1.40;1.00;;;;;;5135272;27;20203;-67
2021/03/02 01:02:06;;;;;;;88.90;19.95;;;1.30;1.00;;;;;;5135320;27;20210;-67
2021/03/02 01:04:33;;;;;;;93.75;23.60;;;1.30;1.00;;;;;;5135475;27;20206;-67
2021/03/02 01:06:59;;;;;;;89.70;20.48;;;1.30;1.00;;;;;;5135059;27;20226;-67
2021/03/02 01:09:25;;;;;;;89.88;19.90;;;1.30;1.00;;;;;;5134741;27;20242;-68
2021/03/02 01:11:52;;;;;;;75.85;15.65;;;1.30;1.00;;;;;;5135203;27;20207;-67
2021/03/02 01:14:18;;;;;;;74.65;13.35;;;1.30;1.00;;;;;;5135323;27;20243;-67
2021/03/02 01:16:44;;;;;;;75.50;15.18;;;1.30;1.00;;;;;;5135136;27;20314;-68
2021/03/02 01:19:11;;;;;;;73.53;13.60;;;1.30;1.00;;;;;;5133852;27;20199;-67
2021/03/02 01:21:38;;;;;;;68.63;12.38;;;1.30;1.00;;;;;;5133548;27;20230;-67
2021/03/02 01:24:05;;;;;;;71.43;12.98;;;1.20;1.00;;;;;;5125959;27;20291;-68
2021/03/02 01:26:31;;;;;;;70.30;12.38;;;1.20;1.00;;;;;;5134725;27;20654;-67
2021/03/02 01:28:57;;;;;;;73.18;13.27;;;1.20;1.00;;;;;;5135000;27;20592;-68
2021/03/02 01:31:25;;;;;;;70.95;12.82;;;1.20;1.00;;;;;;5134850;27;20199;-68
2021/03/02 01:33:51;;;;;;;70.68;11.75;;;1.20;1.00;;;;;;5134356;27;20203;-68
2021/03/02 01:36:19;;;;;;;67.85;11.85;;;1.10;1.00;;;;;;5134612;27;20234;-68
2021/03/02 01:38:45;;;;;;;71.22;12.02;;;1.10;1.00;;;;;;5134435;27;20209;-68
2021/03/02 01:41:12;;;;;;;66.57;11.88;;;1.00;1.00;;;;;;5134679;27;20213;-68
2021/03/02 01:43:39;;;;;;;70.55;10.98;;;1.00;1.00;;;;;;5134191;27;20199;-68
2021/03/02 01:46:05;;;;;;;70.18;11.90;;;1.00;1.00;;;;;;5134413;27;20231;-68
2021/03/02 01:48:33;;;;;;;67.82;10.85;;;1.00;1.00;;;;;;5134464;27;20310;-67
2021/03/02 01:50:59;;;;;;;67.32;11.52;;;0.90;1.00;;;;;;5134162;27;20736;-67
2021/03/02 01:53:26;;;;;;;71.50;13.35;;;0.90;1.00;;;;;;5134257;27;20267;-67
2021/03/02 01:55:53;;;;;;;69.57;12.45;;;0.90;1.00;;;;;;5134103;27;20367;-67
2021/03/02 01:58:19;;;;;;;70.70;12.23;;;0.90;1.00;;;;;;5134517;27;20286;-67
2021/03/02 02:00:52;;;;;;;68.05;10.75;;;0.90;1.00;;;;;;5134087;27;20230;-67
2021/03/02 02:03:27;;;;;;;67.97;10.93;;;0.90;1.00;;;;;;5134142;27;20203;-67
2021/03/02 02:05:59;;;;;;;68.45;11.32;;;0.90;1.00;;;;;;5128125;27;20308;-67
2021/03/02 02:08:37;;;;;;;67.38;10.77;;;0.80;1.00;;;;;;5129517;27;20678;-67
2021/03/02 02:11:11;;;;;;;67.03;9.80;;;0.80;1.00;;;;;;5125539;27;20226;-67
2021/03/02 02:13:42;;;;;;;70.13;12.50;;;0.70;1.00;;;;;;5133519;27;20203;-67
2021/03/02 02:16:13;;;;;;;67.78;10.40;;;0.70;1.00;;;;;;5133569;27;20223;-67
2021/03/02 02:18:46;;;;;;;66.15;11.32;;;0.70;1.00;;;;;;5133586;27;20725;-67
2021/03/02 02:21:22;;;;;;;70.90;12.75;;;0.60;1.00;;;;;;5133652;27;20210;-67
2021/03/02 02:24:02;;;;;;;69.28;11.60;;;0.60;1.00;;;;;;5134000;27;20206;-68
2021/03/02 02:26:43;;;;;;;70.30;11.35;;;0.60;1.00;;;;;;5133355;27;20219;-67
2021/03/02 02:29:13;;;;;;;71.47;11.93;;;0.50;1.00;;;;;;5133422;27;20714;-67
2021/03/02 02:31:42;;;;;;;69.63;11.50;;;0.50;1.00;;;;;;5133659;27;20626;-68
2021/03/02 02:34:11;;;;;;;69.60;11.32;;;0.50;1.00;;;;;;5133382;27;20615;-67
2021/03/02 02:36:39;;;;;;;68.15;10.80;;;0.50;1.00;;;;;;5133288;27;20333;-67
2021/03/02 02:39:06;;;;;;;69.43;11.40;;;0.50;1.00;;;;;;5133059;27;20588;-67
2021/03/02 02:41:34;;;;;;;67.72;11.20;;;0.50;1.00;;;;;;5133578;27;20202;-67
2021/03/02 02:44:02;;;;;;;70.03;10.98;;;0.50;1.00;;;;;;5133338;27;20678;-68
2021/03/02 02:46:29;;;;;;;64.53;11.15;;;0.50;1.00;;;;;;5133093;27;20219;-67
2021/03/02 02:48:57;;;;;;;70.40;12.00;;;0.50;1.00;;;;;;5133029;27;20309;-67
2021/03/02 02:51:24;;;;;;;68.38;11.40;;;0.40;1.00;;;;;;5133236;27;20210;-67
2021/03/02 02:53:51;;;;;;;67.20;9.80;;;0.40;1.00;;;;;;5133155;27;20674;-68
2021/03/02 02:56:20;;;;;;;67.68;10.38;;;0.40;1.00;;;;;;5132757;27;20219;-67
2021/03/02 02:59:02;;;;;;;66.53;10.80;;;0.40;1.00;;;;;;5133122;27;20348;-67
2021/03/02 03:01:30;;;;;;;66.13;10.27;;;0.30;1.00;;;;;;5132968;27;20288;-67
2021/03/02 03:03:58;;;;;;;66.95;9.90;;;0.30;1.00;;;;;;5132590;27;20290;-68
2021/03/02 03:06:27;;;;;;;67.25;10.00;;;0.30;1.00;;;;;;5133005;27;20218;-68
2021/03/02 03:08:56;;;;;;;72.63;9.77;;;0.30;1.00;;;;;;5132682;27;20242;-67
2021/03/02 03:11:25;;;;;;;66.75;10.10;;;0.30;1.00;;;;;;5132782;27;20213;-67
2021/03/02 03:13:53;;;;;;;68.13;10.05;;;0.30;1.00;;;;;;5132819;27;20199;-68
2021/03/02 03:16:23;;;;;;;63.70;9.43;;;0.20;1.00;;;;;;5132504;27;20223;-67
2021/03/02 03:18:52;;;;;;;64.80;10.35;;;0.20;1.00;;;;;;5129145;27;20206;-67
2021/03/02 03:21:19;;;;;;;70.82;10.98;;;0.20;1.00;;;;;;5132872;27;20244;-67
2021/03/02 03:23:48;;;;;;;81.75;9.60;;;0.10;1.00;;;;;;5132348;27;20198;-67
2021/03/02 03:26:16;;;;;;;69.40;11.10;;;0.10;1.00;;;;;;5132344;27;20215;-68
2021/03/02 03:28:46;;;;;;;69.80;11.07;;;0.10;1.00;;;;;;5132534;27;20252;-67
2021/03/02 03:31:16;;;;;;;69.50;10.75;;;0.10;1.00;;;;;;5132368;27;20209;-67
2021/03/02 03:33:43;;;;;;;67.85;10.85;;;0.10;1.00;;;;;;5132405;27;20205;-68
2021/03/02 03:36:12;;;;;;;70.60;11.57;;;0.10;1.00;;;;;;5132511;27;20714;-68
2021/03/02 03:38:39;;;;;;;64.00;9.85;;;0.10;1.00;;;;;;5132476;27;20205;-68
2021/03/02 03:41:05;;;;;;;69.63;10.43;;;0.10;1.00;;;;;;5132597;27;20199;-68
2021/03/02 03:43:32;;;;;;;68.45;11.25;;;0.10;1.00;;;;;;5132054;27;20290;-67
2021/03/02 03:45:58;;;;;;;68.93;11.57;;;0.10;1.00;;;;;;5132273;27;20733;-68
2021/03/02 03:48:26;;;;;;;67.22;10.98;;;0.00;1.00;;;;;;5132422;27;20694;-68
2021/03/02 03:50:52;;;;;;;68.57;11.68;;;0.00;1.00;;;;;;5132547;27;20313;-68
2021/03/02 03:53:21;;;;;;;73.07;10.73;;;0.00;1.00;;;;;;5132417;27;20207;-67
2021/03/02 03:55:51;;;;;;;67.88;10.48;;;0.00;1.00;;;;;;5132272;27;20219;-68
2021/03/02 03:58:22;;;;;;;69.22;10.55;;;0.00;1.00;;;;;;5132002;27;20298;-67
2021/03/02 04:00:50;;;;;;;68.57;10.68;;;0.00;1.00;;;;;;5132427;27;20255;-67
2021/03/02 04:03:17;;;;;;;66.80;10.32;;;0.00;1.00;;;;;;5132051;27;20207;-68
2021/03/02 04:05:46;;;;;;;68.95;9.88;;;0.00;1.00;;;;;;5132337;27;20227;-68
2021/03/02 04:08:13;;;;;;;68.35;11.23;;;0.00;1.00;;;;;;5134146;27;20297;-67
2021/03/02 04:10:41;;;;;;;70.65;9.93;;;0.00;1.00;;;;;;5136133;27;20214;-67
2021/03/02 04:13:12;;;;;;;69.68;10.98;;;0.00;1.00;;;;;;5136356;27;20639;-68
2021/03/02 04:15:39;;;;;;;66.75;10.00;;;-0.10;1.00;;;;;;5135971;27;20782;-68
2021/03/02 04:18:10;;;;;;;70.63;10.27;;;-0.10;1.00;;;;;;5136201;27;20202;-67
2021/03/02 04:20:36;;;;;;;68.18;10.80;;;-0.10;1.00;;;;;;5136158;27;20199;-68
2021/03/02 04:23:04;;;;;;;67.75;10.70;;;-0.10;1.00;;;;;;5135789;27;20227;-68
2021/03/02 04:25:31;;;;;;;67.20;10.88;;;-0.10;1.00;;;;;;5136081;27;20238;-68
2021/03/02 04:27:57;;;;;;;67.15;10.55;;;-0.10;1.00;;;;;;5136199;27;20198;-68
2021/03/02 04:30:24;;;;;;;67.40;9.55;;;-0.10;1.00;;;;;;5135994;27;20712;-67
2021/03/02 04:32:51;;;;;;;65.05;10.43;;;-0.10;1.00;;;;;;5135758;27;20290;-68
2021/03/02 04:35:18;;;;;;;65.97;10.77;;;-0.10;1.00;;;;;;5135608;27;20222;-68
2021/03/02 04:37:44;;;;;;;68.43;10.73;;;-0.10;1.00;;;;;;5136146;27;20619;-68
2021/03/02 04:40:13;;;;;;;66.00;10.82;;;-0.10;1.00;;;;;;5135771;27;20667;-68
2021/03/02 04:42:40;;;;;;;66.80;10.30;;;-0.20;1.00;;;;;;5135464;27;20294;-68
2021/03/02 04:45:08;;;;;;;68.53;10.05;;;-0.20;1.00;;;;;;5135400;27;20203;-68
2021/03/02 04:47:34;;;;;;;71.10;11.02;;;-0.20;1.00;;;;;;5135779;27;20570;-68
2021/03/02 04:50:01;;;;;;;68.72;10.45;;;-0.20;1.00;;;;;;5135286;27;20702;-68
2021/03/02 04:52:27;;;;;;;68.53;10.68;;;-0.20;1.00;;;;;;5135154;27;20229;-68
2021/03/02 04:54:55;;;;;;;65.55;10.82;;;-0.30;1.00;;;;;;5135436;27;20238;-68
2021/03/02 04:57:22;;;;;;;68.95;10.68;;;-0.30;1.00;;;;;;5135454;27;20218;-68
2021/03/02 04:59:49;;;;;;;67.97;10.57;;;-0.30;1.00;;;;;;5135189;27;20229;-68
2021/03/02 05:02:15;;;;;;;65.15;10.60;;;-0.30;1.00;;;;;;5135276;27;20610;-68
2021/03/02 05:04:42;;;;;;;66.63;11.20;;;-0.30;1.00;;;;;;5128840;27;20272;-68
2021/03/02 05:07:08;;;;;;;66.40;10.90;;;-0.30;1.00;;;;;;5134766;27;20309;-68
2021/03/02 05:09:34;;;;;;;65.55;9.25;;;-0.40;1.00;;;;;;5135208;27;20223;-67
2021/03/02 05:12:01;;;;;;;68.13;10.88;;;-0.40;1.00;;;;;;5135012;27;20199;-67
2021/03/02 05:14:28;;;;;;;65.32;8.98;;;-0.40;1.00;;;;;;5134985;27;20678;-68
2021/03/02 05:16:54;;;;;;;66.72;9.73;;;-0.40;1.00;;;;;;5134729;27;20301;-68
2021/03/02 05:19:20;;;;;;;67.07;10.60;;;-0.40;1.00;;;;;;5126757;27;20294;-68
2021/03/02 05:21:47;;;;;;;65.88;9.98;;;-0.40;1.00;;;;;;5134090;27;20637;-68
2021/03/02 05:24:13;;;;;;;67.47;10.40;;;-0.40;1.00;;;;;;5134647;27;20222;-68
2021/03/02 05:26:40;;;;;;;66.45;9.85;;;-0.40;1.00;;;;;;5134755;27;20235;-68
2021/03/02 05:29:06;;;;;;;65.70;9.80;;;-0.50;1.00;;;;;;5134664;27;20267;-68
2021/03/02 05:31:33;;;;;;;66.13;9.10;;;-0.50;1.00;;;;;;5134890;27;20207;-68
2021/03/02 05:34:00;;;;;;;67.63;10.38;;;-0.50;1.00;;;;;;5134406;27;20756;-68
2021/03/02 05:36:26;;;;;;;69.03;10.75;;;-0.50;1.00;;;;;;5134671;27;20284;-68
2021/03/02 05:38:53;;;;;;;67.70;10.68;;;-0.50;1.00;;;;;;5134807;27;20293;-68
2021/03/02 05:41:19;;;;;;;67.13;10.13;;;-0.50;1.00;;;;;;5134759;27;20625;-68
2021/03/02 05:43:46;;;;;;;69.38;10.25;;;-0.40;1.00;;;;;;5134351;27;20207;-68
2021/03/02 05:46:13;;;;;;;65.68;9.70;;;-0.40;1.00;;;;;;5134339;27;20782;-68
2021/03/02 05:48:42;;;;;;;70.38;9.32;;;-0.40;1.00;;;;;;5134187;27;20706;-68
2021/03/02 05:51:09;;;;;;;64.43;8.88;;;-0.50;1.00;;;;;;5134613;27;20203;-68
2021/03/02 05:53:39;;;;;;;68.45;9.70;;;-0.50;1.00;;;;;;5134270;27;20577;-68
2021/03/02 05:56:07;;;;;;;65.60;9.40;;;-0.50;1.00;;;;;;5134279;27;20226;-68
2021/03/02 05:58:34;;;;;;;64.63;9.30;;;-0.50;1.00;;;;;;5134354;27;20562;-68
2021/03/02 06:01:01;;;;;;;65.85;10.13;;;-0.50;1.00;;;;;;5133998;27;20213;-68
2021/03/02 06:03:27;;;;;;;69.53;10.65;;;-0.50;1.00;;;;;;5133963;27;20294;-68
2021/03/02 06:05:56;;;;;;;65.68;9.70;;;-0.50;1.00;;;;;;5134203;27;20643;-68
2021/03/02 06:08:22;;;;;;;65.32;9.48;;;-0.50;1.00;;;;;;5133952;27;20211;-68
2021/03/02 06:10:49;;;;;;;66.60;9.20;;;-0.50;1.00;;;;;;5134259;27;20293;-68
2021/03/02 06:13:25;;;;;;;69.50;9.93;;;-0.40;1.00;;;;;;5133763;27;20211;-68
2021/03/02 06:15:56;;;;;;;67.03;9.93;;;-0.40;1.00;;;;;;5134082;27;20230;-68
2021/03/02 06:18:23;;;;;;;67.95;10.65;;;-0.40;1.00;;;;;;5134111;27;20583;-68
2021/03/02 06:20:51;;;;;;;69.20;10.20;;;-0.40;1.00;;;;;;5133846;27;20313;-68
2021/03/02 06:23:26;;;;;;;65.05;9.60;;;-0.40;1.00;;;;;;5133824;27;20209;-68
2021/03/02 06:25:54;;;;;;;66.45;10.70;;;-0.30;1.00;;;;;;5133523;27;20237;-68
2021/03/02 06:28:36;;;;;;;67.25;10.93;;;-0.30;1.00;;;;;;5133404;27;20215;-68
2021/03/02 06:31:02;;;;;;;68.28;10.35;;;-0.30;1.00;;;;;;5124748;27;20653;-68
2021/03/02 06:33:29;;;;;;;65.75;10.75;;;-0.20;1.00;;;;;;5133408;27;20198;-68
2021/03/02 06:35:55;;;;;;;70.55;11.00;;;-0.20;1.00;;;;;;5133074;27;20698;-68
2021/03/02 06:38:29;;;;;;;72.45;11.98;;;-0.20;1.00;;;;;;5133324;27;20209;-68
2021/03/02 06:40:56;;;;;;;71.18;11.63;;;-0.10;1.00;;;;;;5133503;27;20267;-68
2021/03/02 06:43:34;;;;;;;71.72;12.07;;;-0.10;1.00;;;;;;5131646;27;20631;-68
2021/03/02 06:46:01;;;;;;;68.65;10.68;;;-0.10;1.00;;;;;;5133076;27;20256;-68
2021/03/02 06:48:30;;;;;;;68.53;11.77;;;0.00;1.00;;;;;;5133030;27;20199;-68
2021/03/02 06:50:57;;;;;;;68.05;11.38;;;0.00;1.00;;;;;;5132931;27;20195;-68
2021/03/02 06:53:23;;;;;;;67.10;10.30;;;0.10;1.00;;;;;;5132749;27;20214;-68
2021/03/02 06:55:50;;;;;;;66.90;12.38;;;0.10;1.00;;;;;;5133023;27;20231;-68
2021/03/02 06:58:22;;;;;;;67.30;10.27;;;0.10;1.00;;;;;;5133259;27;20203;-68
2021/03/02 07:00:50;;;;;;;68.95;11.13;;;0.20;1.00;;;;;;5133241;27;20256;-68
2021/03/02 07:03:28;;;;;;;67.25;11.27;;;0.30;1.00;;;;;;5132842;27;20277;-68
2021/03/02 07:05:56;;;;;;;66.50;10.00;;;0.30;1.00;;;;;;5133186;27;20218;-68
2021/03/02 07:08:23;;;;;;;69.63;10.90;;;0.40;1.00;;;;;;5132974;27;20243;-68
2021/03/02 07:10:53;;;;;;;72.57;12.30;;;0.40;1.00;;;;;;5132966;27;20226;-68
2021/03/02 07:13:20;;;;;;;71.75;12.02;;;0.50;1.00;;;;;;5132883;27;20211;-68
2021/03/02 07:15:49;;;;;;;70.55;12.30;;;0.60;1.00;;;;;;5132837;27;20230;-68
2021/03/02 07:18:17;;;;;;;72.85;12.75;;;0.60;1.00;;;;;;5130603;27;20200;-68
2021/03/02 07:20:48;;;;;;;71.32;11.90;;;0.70;1.00;;;;;;5130910;27;20202;-68
2021/03/02 07:23:20;;;;;;;76.15;11.15;;;0.80;1.00;;;;;;5127934;27;20199;-68
2021/03/02 07:25:48;;;;;;;67.53;11.90;;;0.80;1.00;;;;;;5132510;27;20219;-68
2021/03/02 07:28:18;;;;;;;71.78;11.60;;;0.90;1.00;;;;;;5132711;27;20788;-68
2021/03/02 07:30:48;;;;;;;66.53;9.88;;;1.00;1.00;;;;;;5128338;27;20204;-68
2021/03/02 07:33:15;;;;;;;67.30;11.85;;;1.10;1.00;;;;;;5124732;27;20202;-68
2021/03/02 07:35:42;;;;;;;68.55;11.40;;;1.40;1.00;;;;;;5126875;27;20722;-68
2021/03/02 07:38:17;;;;;;;69.97;13.00;;;1.50;1.00;;;;;;5129551;27;20280;-68
2021/03/02 07:40:46;;;;;;;69.25;11.70;;;1.50;1.00;;;;;;5127501;27;20192;-68
2021/03/02 07:43:24;;;;;;;68.95;10.57;;;1.60;1.00;;;;;;5136347;27;20666;-68
2021/03/02 07:45:50;;;;;;;82.43;13.65;;;1.70;1.00;;;;;;5139333;27;20232;-68
2021/03/02 07:48:28;;;;;;;72.85;11.88;;;1.70;1.00;;;;;;5139135;27;20289;-68
2021/03/02 07:51:15;;;;;;;71.97;12.73;;;1.80;1.00;;;;;;5111985;27;20191;-68
2021/03/02 07:53:42;;;;;;;73.88;12.02;;;1.90;1.00;;;;;;5106275;27;20199;-68
2021/03/02 07:56:23;;;;;;;71.53;11.70;;;1.90;1.00;;;;;;5136216;27;20651;-69
2021/03/02 07:59:21;;;;;;;75.13;13.13;;;2.00;1.00;;;;;;5139231;27;20194;-68
2021/03/02 08:02:15;;;;;;;76.40;13.68;;;2.10;1.00;;;;;;5103563;27;20203;-68
2021/03/02 08:04:42;;;;;;;69.70;12.13;;;2.20;1.00;;;;;;5131905;27;20195;-68
2021/03/02 08:07:24;;;;;;;71.88;12.40;;;2.40;1.00;;;;;;5128381;27;20219;-68
2021/03/02 08:09:52;;;;;;;73.75;12.90;;;2.50;1.00;;;;;;5139143;27;20644;-68
2021/03/02 08:12:28;;;;;;;71.53;12.90;;;2.60;1.00;;;;;;5138746;27;20242;-68
2021/03/02 08:14:55;;;;;;;75.53;13.25;;;2.70;1.00;;;;;;5129412;27;20219;-68
2021/03/02 08:17:23;;;;;;;72.55;12.40;;;2.80;1.00;;;;;;5133470;27;20283;-68
2021/03/02 08:19:51;;;;;;;73.75;13.60;;;3.00;1.00;;;;;;5128154;27;20287;-66
2021/03/02 08:22:49;;;;;;;70.78;12.73;;;3.10;1.00;;;;;;5134035;27;20568;-66
2021/03/02 08:25:29;;;;;;;73.20;14.23;;;3.20;1.00;;;;;;5129185;27;20289;-67
2021/03/02 08:27:59;;;;;;;74.68;14.27;;;3.40;1.00;;;;;;5137613;27;20285;-67
2021/03/02 08:30:29;;;;;;;76.00;16.05;;;3.60;1.00;;;;;;5138596;27;20223;-67
2021/03/02 08:32:57;;;;;;;75.50;14.80;;;3.80;1.00;;;;;;5138924;27;20807;-67
2021/03/02 08:35:27;;;;;;;76.55;15.07;;;4.00;1.00;;;;;;5138651;27;20636;-67
2021/03/02 08:37:55;;;;;;;77.32;16.42;;;4.30;1.00;;;;;;5139087;27;20748;-67
2021/03/02 08:40:22;;;;;;;78.65;16.83;;;4.50;1.00;;;;;;5138864;27;20671;-67
2021/03/02 08:43:07;;;;;;;77.07;17.90;;;4.70;1.00;;;;;;5138837;27;20210;-67
2021/03/02 08:45:37;;;;;;;77.72;16.63;;;5.00;1.00;;;;;;5138543;27;20309;-67
2021/03/02 08:48:18;;;;;;;76.43;17.23;;;5.20;1.00;;;;;;5138956;27;20207;-67
2021/03/02 08:50:46;;;;;;;79.82;17.25;;;5.40;1.00;;;;;;5138871;27;20313;-67
2021/03/02 08:53:26;;;;;;;79.20;17.23;;;5.60;1.00;;;;;;5136551;27;20211;-67
2021/03/02 08:55:53;;;;;;;77.63;17.83;;;5.80;1.00;;;;;;5135503;27;20576;-67
2021/03/02 08:58:30;;;;;;;85.40;18.95;;;6.00;1.00;;;;;;5135562;27;20258;-67
2021/03/02 09:01:02;;;;;;;80.43;17.05;;;6.20;1.00;;;;;;5135694;27;20211;-67
2021/03/02 09:03:29;;;;;;;78.45;17.10;;;6.40;1.00;;;;;;5135294;27;20248;-67
2021/03/02 09:06:21;;;;;;;82.15;17.45;;;6.60;1.00;;;;;;5135380;27;20227;-67
2021/03/02 09:08:50;;;;;;;78.85;17.17;;;6.80;1.00;;;;;;5119763;27;20583;-67
2021/03/02 09:11:19;;;;;;;76.68;16.27;;;7.00;1.00;;;;;;5135606;27;20207;-67
2021/03/02 09:13:46;;;;;;;74.40;16.65;;;7.10;1.00;;;;;;5134991;27;20202;-67
2021/03/02 09:16:24;;;;;;;74.40;16.33;;;7.20;1.00;;;;;;5134826;27;20317;-67
2021/03/02 09:19:02;;;;;;;80.85;16.90;;;7.30;1.00;;;;;;5134848;27;20199;-67
2021/03/02 09:21:29;;;;;;;80.65;16.92;;;7.50;1.00;;;;;;5135004;27;20775;-67
2021/03/02 09:23:55;;;;;;;74.55;16.30;;;7.60;1.00;;;;;;5134733;27;20203;-67
2021/03/02 09:26:22;;;;;;;77.70;16.85;;;7.70;1.00;;;;;;5134518;27;20223;-67
2021/03/02 09:28:53;;;;;;;74.70;17.13;;;7.80;1.00;;;;;;5134714;27;20203;-67
2021/03/02 09:31:20;;;;;;;75.65;16.73;;;7.90;1.00;;;;;;5134545;27;20635;-67
2021/03/02 09:33:49;;;;;;;73.97;15.50;;;8.00;1.00;;;;;;5134429;27;20266;-67
2021/03/02 09:36:15;;;;;;;75.35;16.13;;;8.20;1.00;;;;;;5134786;27;20842;-67
2021/03/02 09:38:42;;;;;;;78.18;15.00;;;8.30;1.00;;;;;;5134739;27;20210;-67
2021/03/02 09:41:08;;;;;;;78.82;16.05;;;8.50;1.00;;;;;;5134689;27;20199;-67
2021/03/02 09:43:36;;;;;;;74.23;15.27;;;8.50;1.00;;;;;;5134558;27;20671;-66
2021/03/02 09:46:02;;;;;;;74.73;16.90;;;8.70;1.00;;;;;;5134119;27;20846;-67
2021/03/02 09:48:41;;;;;;;79.83;16.33;;;8.90;1.00;;;;;;5134597;27;20533;-67
2021/03/02 09:51:27;;;;;;;74.73;15.07;;;9.10;1.00;;;;;;5134485;27;20451;-67
2021/03/02 09:53:54;;;;;;;73.93;16.27;;;9.30;1.00;;;;;;5134198;27;20954;-67
2021/03/02 09:56:21;;;;;;;73.60;16.03;;;9.60;1.00;;;;;;5134143;27;20519;-67
2021/03/02 09:58:47;;;;;;;72.40;14.47;;;9.90;1.00;;;;;;5134374;27;20453;-67
2021/03/02 10:01:14;;;;;;;71.60;15.70;;;10.10;1.00;;;;;;5134209;27;20969;-67
2021/03/02 10:03:42;;;;;;;72.60;14.87;;;10.40;1.00;;;;;;5134145;27;20476;-67
2021/03/02 10:06:09;;;;;;;74.20;15.63;;;11.30;1.00;;;;;;5133287;27;20476;-67
2021/03/02 10:08:37;;;;;;;70.57;14.30;;;12.80;1.00;;;;;;5134260;27;20542;-67
2021/03/02 10:11:19;;;;;;;78.60;16.07;;;14.40;1.00;;;;;;5133974;27;20460;-67
2021/03/02 10:13:49;;;;;;;72.23;16.00;;;15.70;1.00;;;;;;5141530;27;21180;-67
2021/03/02 10:16:17;;;;;;;72.40;14.90;;;16.70;1.00;;;;;;5152768;27;20461;-67
2021/03/02 10:18:52;;;;;;;73.17;15.97;;;17.60;1.00;;;;;;5150839;27;20458;-68
2021/03/02 10:21:19;;;;;;;73.13;15.03;;;18.40;1.00;;;;;;5149423;27;20443;-68
2021/03/02 10:23:48;;;;;;;71.10;14.70;;;19.20;1.00;;;;;;5150262;27;20486;-68
2021/03/02 10:26:21;;;;;;;72.70;16.57;;;20.00;1.00;;;;;;5150116;27;20492;-68
2021/03/02 10:28:47;;;;;;;70.67;16.70;;;20.80;1.00;;;;;;5150485;27;20844;-67
2021/03/02 10:31:13;;;;;;;69.47;15.23;;;21.40;1.00;;;;;;5150856;27;20438;-67
2021/03/02 10:33:40;;;;;;;73.20;15.87;;;22.00;1.00;;;;;;5150444;27;20526;-67
2021/03/02 10:36:23;;;;;;;68.83;14.93;;;22.20;1.00;;;;;;5149365;27;20774;-68
2021/03/02 10:38:51;;;;;;;70.13;15.57;;;22.60;1.00;;;;;;5149042;27;20474;-68
2021/03/02 10:41:19;;;;;;;68.83;15.43;;;22.90;1.00;;;;;;5150008;27;20445;-68
2021/03/02 10:43:46;;;;;;;70.87;16.60;;;23.10;1.00;;;;;;5149397;27;20444;-69
2021/03/02 10:46:13;;;;;;;69.53;15.20;;;23.50;1.00;;;;;;5144483;27;20449;-68
2021/03/02 10:48:39;;;;;;;74.07;18.50;;;23.90;1.00;;;;;;5150956;27;20792;-68
2021/03/02 10:51:06;;;;;;;69.40;15.27;;;24.40;1.00;;;;;;5150789;27;20463;-69
2021/03/02 10:53:32;;;;;;;69.40;14.17;;;25.00;1.00;;;;;;5151226;27;20997;-66
2021/03/02 10:55:59;;;;;;;68.50;15.30;;;25.40;1.00;;;;;;5152445;27;20532;-68
2021/03/02 10:58:26;;;;;;;66.80;14.80;;;25.80;1.00;;;;;;5150447;27;20466;-68
2021/03/02 11:00:56;;;;;;;73.50;15.20;;;26.30;1.00;;;;;;5151207;27;20437;-68
2021/03/02 11:03:22;;;;;;;69.27;14.90;;;26.90;1.00;;;;;;5152337;27;20443;-68
2021/03/02 11:05:50;;;;;;;67.00;13.87;;;27.20;1.00;;;;;;5151400;27;20488;-68
2021/03/02 11:08:16;;;;;;;67.50;12.97;;;27.80;1.00;;;;;;5149523;27;20471;-68
2021/03/02 11:10:43;;;;;;;65.07;13.83;;;28.40;1.00;;;;;;5150882;27;20893;-68
2021/03/02 11:13:11;;;;;;;67.00;14.33;;;29.00;1.00;;;;;;5151969;27;20472;-68
2021/03/02 11:15:38;;;;;;;67.40;13.17;;;29.20;1.00;;;;;;5151735;27;20457;-68
2021/03/02 11:18:04;;;;;;;66.27;13.63;;;29.20;1.00;;;;;;5152739;27;20528;-68
2021/03/02 11:20:32;;;;;;;67.53;14.20;;;29.40;1.00;;;;;;5153137;27;20437;-68
2021/03/02 11:22:58;;;;;;;67.00;14.57;;;29.80;1.00;;;;;;5153223;27;20478;-68
2021/03/02 11:25:25;;;;;;;68.07;15.00;;;29.80;1.00;;;;;;5153358;27;20508;-68
2021/03/02 11:27:51;;;;;;;65.60;13.90;;;30.00;1.00;;;;;;5152843;27;20480;-68
2021/03/02 11:30:20;;;;;;;65.07;13.67;;;30.40;1.00;;;;;;5151921;27;20541;-68
2021/03/02 11:32:46;;;;;;;70.07;14.50;;;31.20;1.00;;;;;;5153880;27;20424;-68
2021/03/02 11:35:13;;;;;;;65.00;13.90;;;31.90;1.00;;;;;;5153214;27;20500;-68
2021/03/02 11:37:41;;;;;;;68.30;13.70;;;32.30;1.00;;;;;;5154370;27;20450;-68
2021/03/02 11:40:09;;;;;;;67.47;16.10;;;32.90;1.00;;;;;;5154204;27;20439;-68
2021/03/02 11:42:36;;;;;;;66.57;13.33;;;32.90;1.00;;;;;;5154059;27;20444;-68
2021/03/02 11:45:04;;;;;;;66.67;13.73;;;33.00;1.00;;;;;;5146061;27;20434;-68
2021/03/02 11:47:31;;;;;;;66.03;14.43;;;33.40;1.00;;;;;;5152515;28;20469;-68
2021/03/02 11:49:58;;;;;;;65.60;14.20;;;33.80;1.00;;;;;;5152284;27;20920;-68
2021/03/02 11:52:24;;;;;;;65.83;13.83;;;34.30;1.00;;;;;;5154039;27;20497;-68
2021/03/02 11:54:50;;;;;;;65.97;14.37;;;34.40;1.00;;;;;;5153458;27;20441;-68
2021/03/02 11:57:17;;;;;;;65.30;13.27;;;34.70;1.00;;;;;;5153086;27;20613;-68
2021/03/02 11:59:44;;;;;;;66.17;12.57;;;34.70;1.00;;;;;;5129492;27;21080;-68
2021/03/02 12:02:12;;;;;;;64.40;13.50;;;35.10;1.00;;;;;;5101847;28;20772;-68
2021/03/02 12:04:39;;;;;;;66.47;13.33;;;35.00;1.00;;;;;;5110146;28;20490;-68
2021/03/02 12:07:06;;;;;;;66.20;13.73;;;34.80;1.00;;;;;;5142249;27;20468;-68
2021/03/02 12:09:33;;;;;;;64.40;13.07;;;34.10;1.00;;;;;;5148942;28;20452;-68
2021/03/02 12:11:59;;;;;;;63.67;13.43;;;33.90;1.00;;;;;;5147098;27;20514;-67
2021/03/02 12:14:26;;;;;;;66.20;13.77;;;34.20;1.00;;;;;;5145138;27;20453;-68
2021/03/02 12:16:52;;;;;;;65.27;14.10;;;34.00;1.00;;;;;;5143807;28;20475;-68
2021/03/02 12:19:18;;;;;;;66.70;13.87;;;33.20;1.00;;;;;;5145494;27;20500;-68
2021/03/02 12:21:46;;;;;;;68.00;15.47;;;33.30;1.00;;;;;;5149872;27;20498;-68
2021/03/02 12:24:12;;;;;;;67.23;14.80;;;34.20;1.00;;;;;;5150833;27;20437;-68
2021/03/02 12:26:39;;;;;;;69.30;15.60;;;35.00;1.00;;;;;;5151098;27;20456;-68
2021/03/02 12:29:05;;;;;;;66.83;14.10;;;35.60;1.00;;;;;;5139739;27;20445;-68
2021/03/02 12:31:31;;;;;;;66.67;14.40;;;36.40;1.00;;;;;;5136772;27;20548;-68
2021/03/02 12:33:58;;;;;;;66.70;14.80;;;37.10;1.00;;;;;;5135912;27;20448;-68
2021/03/02 12:36:24;;;;;;;67.50;14.43;;;37.50;1.00;;;;;;5136224;27;20471;-68
2021/03/02 12:38:51;;;;;;;64.67;13.40;;;37.90;1.00;;;;;;5135730;27;20440;-68
2021/03/02 12:41:18;;;;;;;64.07;13.80;;;38.20;1.00;;;;;;5136058;27;20451;-68
2021/03/02 12:43:44;;;;;;;68.97;15.83;;;38.30;1.00;;;;;;5135739;27;20891;-68
2021/03/02 12:46:11;;;;;;;65.47;14.33;;;38.30;1.00;;;;;;5135759;27;20490;-68
2021/03/02 12:48:37;;;;;;;66.40;14.70;;;38.30;1.00;;;;;;5135541;27;20937;-68
2021/03/02 12:51:04;;;;;;;65.30;14.40;;;38.50;1.00;;;;;;5135878;27;20523;-68